createdAt,value
2023-05-09T00:01:06.940Z,57.30
2023-05-09T00:03:33.657Z,57.01
2023-05-09T00:06:01.521Z,56.53
2023-05-09T00:08:28.484Z,56.50
2023-05-09T00:10:55.231Z,56.29
2023-05-09T00:13:23.092Z,56.44
2023-05-09T00:15:53.408Z,56.66
2023-05-09T00:18:21.574Z,56.80
2023-05-09T00:20:49.397Z,56.62
2023-05-09T00:23:16.274Z,55.86
2023-05-09T00:25:43.192Z,55.94
2023-05-09T00:28:10.326Z,56.12
2023-05-09T00:30:37.884Z,56.22
2023-05-09T00:33:05.685Z,55.61
2023-05-09T00:35:32.698Z,55.69
2023-05-09T00:37:59.644Z,55.97
2023-05-09T00:40:26.385Z,55.69
2023-05-09T00:42:55.373Z,55.10
2023-05-09T00:45:22.210Z,55.14
2023-05-09T00:47:49.086Z,54.66
2023-05-09T00:50:16.516Z,66.10
2023-05-09T00:52:43.354Z,68.58
2023-05-09T00:55:10.421Z,68.14
2023-05-09T00:57:38.107Z,66.83
2023-05-09T01:00:06.128Z,66.49
2023-05-09T01:02:33.444Z,65.94
2023-05-09T01:05:01.452Z,65.44
2023-05-09T01:07:37.820Z,63.82
2023-05-09T01:10:16.273Z,63.54
2023-05-09T01:12:43.011Z,63.66
2023-05-09T01:15:31.650Z,63.66
2023-05-09T01:18:25.705Z,63.19
2023-05-09T01:21:04.145Z,62.77
2023-05-09T01:24:09.477Z,62.59
2023-05-09T01:27:13.577Z,62.41
2023-05-09T01:29:59.582Z,62.30
2023-05-09T01:32:27.724Z,60.84
2023-05-09T01:34:56.137Z,59.58
2023-05-09T01:37:35.873Z,59.08
2023-05-09T01:40:20.934Z,58.74
2023-05-09T01:42:57.978Z,58.47
2023-05-09T01:45:24.759Z,57.83
2023-05-09T01:47:51.564Z,57.01
2023-05-09T01:50:18.849Z,58.41
2023-05-09T01:52:49.597Z,58.17
2023-05-09T01:55:16.701Z,58.08
2023-05-09T01:57:45.212Z,58.21
2023-05-09T02:00:13.318Z,58.25
2023-05-09T02:02:40.544Z,57.99
2023-05-09T02:05:08.970Z,58.89
2023-05-09T02:07:35.755Z,59.59
2023-05-09T02:10:02.923Z,58.73
2023-05-09T02:12:29.889Z,57.67
2023-05-09T02:14:56.787Z,57.40
2023-05-09T02:17:23.665Z,57.68
2023-05-09T02:19:50.431Z,56.99
2023-05-09T02:22:17.249Z,56.84
2023-05-09T02:24:47.060Z,56.42
2023-05-09T02:27:14.215Z,56.19
2023-05-09T02:29:49.003Z,55.66
2023-05-09T02:32:18.723Z,55.78
2023-05-09T02:34:46.326Z,56.06
2023-05-09T02:37:13.138Z,55.92
2023-05-09T02:39:40.159Z,55.00
2023-05-09T02:42:11.096Z,54.03
2023-05-09T02:44:40.670Z,53.96
2023-05-09T02:47:07.868Z,53.99
2023-05-09T02:49:35.930Z,53.61
2023-05-09T02:52:03.496Z,53.51
2023-05-09T02:54:30.337Z,53.52
2023-05-09T02:56:57.272Z,53.72
2023-05-09T02:59:25.136Z,53.88
2023-05-09T03:01:52.596Z,53.53
2023-05-09T03:04:19.642Z,53.11
2023-05-09T03:06:46.402Z,52.79
2023-05-09T03:09:13.727Z,52.87
2023-05-09T03:11:40.672Z,52.48
2023-05-09T03:14:08.077Z,52.61
2023-05-09T03:16:35.391Z,51.93
2023-05-09T03:19:03.148Z,52.42
2023-05-09T03:21:31.487Z,52.18
2023-05-09T03:23:58.886Z,51.75
2023-05-09T03:26:25.987Z,51.47
2023-05-09T03:28:53.691Z,51.08
2023-05-09T03:31:20.749Z,50.49
2023-05-09T03:33:47.835Z,49.72
2023-05-09T03:36:14.934Z,48.81
2023-05-09T03:38:42.805Z,48.23
2023-05-09T03:41:09.878Z,48.26
2023-05-09T03:43:36.649Z,47.75
2023-05-09T03:46:03.530Z,46.89
2023-05-09T03:48:32.215Z,45.69
2023-05-09T03:50:59.175Z,44.69
2023-05-09T03:53:26.969Z,44.78
2023-05-09T03:55:54.829Z,44.88
2023-05-09T03:58:23.287Z,45.00
2023-05-09T04:00:50.625Z,45.09
2023-05-09T04:03:20.291Z,45.24
2023-05-09T04:05:47.739Z,44.99
2023-05-09T04:08:23.036Z,45.50
2023-05-09T04:10:50.491Z,45.41
2023-05-09T04:13:17.502Z,44.82
2023-05-09T04:15:45.452Z,44.95
2023-05-09T04:18:12.652Z,45.04
2023-05-09T04:20:39.491Z,44.66
2023-05-09T04:23:06.540Z,44.54
2023-05-09T04:25:33.852Z,44.31
2023-05-09T04:28:01.771Z,44.34
2023-05-09T04:30:29.089Z,44.34
2023-05-09T04:32:56.091Z,43.88
2023-05-09T04:35:23.102Z,43.63
2023-05-09T04:37:51.452Z,43.33
2023-05-09T04:40:18.762Z,43.33
2023-05-09T04:42:56.841Z,42.97
2023-05-09T04:45:26.243Z,42.74
2023-05-09T04:47:53.138Z,42.07
2023-05-09T04:50:20.117Z,41.87
2023-05-09T04:52:47.002Z,41.67
2023-05-09T04:55:14.991Z,41.66
2023-05-09T04:57:44.422Z,42.51
2023-05-09T05:00:12.295Z,43.62
2023-05-09T05:02:40.349Z,43.12
2023-05-09T05:05:11.954Z,42.96
2023-05-09T05:07:42.070Z,42.68
2023-05-09T05:10:10.333Z,42.31
2023-05-09T05:12:38.090Z,42.12
2023-05-09T05:15:05.968Z,41.99
2023-05-09T05:17:33.426Z,41.83
2023-05-09T05:20:00.716Z,41.44
2023-05-09T05:22:28.122Z,41.05
2023-05-09T05:24:55.515Z,41.47
2023-05-09T05:27:22.470Z,41.08
2023-05-09T05:29:49.659Z,40.40
2023-05-09T05:32:16.973Z,40.87
2023-05-09T05:34:43.713Z,40.47
2023-05-09T05:37:10.683Z,40.38
2023-05-09T05:39:37.679Z,40.18
2023-05-09T05:42:04.803Z,39.91
2023-05-09T05:44:32.258Z,39.79
2023-05-09T05:46:59.096Z,39.79
2023-05-09T05:49:26.657Z,39.41
2023-05-09T05:51:53.709Z,39.44
2023-05-09T05:54:21.807Z,41.51
2023-05-09T05:56:48.723Z,43.88
2023-05-09T05:59:15.778Z,43.92
2023-05-09T06:01:42.776Z,43.53
2023-05-09T06:04:09.933Z,43.38
2023-05-09T06:06:37.107Z,43.00
2023-05-09T06:09:03.931Z,43.13
2023-05-09T06:11:30.862Z,42.04
2023-05-09T06:13:58.977Z,41.01
2023-05-09T06:16:27.384Z,40.30
2023-05-09T06:18:55.969Z,40.33
2023-05-09T06:21:23.260Z,39.97
2023-05-09T06:24:04.293Z,40.00
2023-05-09T06:26:35.961Z,40.34
2023-05-09T06:29:03.456Z,38.95
2023-05-09T06:31:30.536Z,38.38
2023-05-09T06:33:57.570Z,38.12
2023-05-09T06:36:24.388Z,37.98
2023-05-09T06:38:51.173Z,37.50
2023-05-09T06:41:17.967Z,36.90
2023-05-09T06:43:45.139Z,36.45
2023-05-09T06:46:11.986Z,36.49
2023-05-09T06:48:39.036Z,36.09
2023-05-09T06:51:05.945Z,35.69
2023-05-09T06:53:32.801Z,35.32
2023-05-09T06:55:59.861Z,34.59
2023-05-09T06:58:27.232Z,35.08
2023-05-09T07:00:53.984Z,34.43
2023-05-09T07:03:20.792Z,33.15
2023-05-09T07:05:47.767Z,32.00
2023-05-09T07:08:14.585Z,32.25
2023-05-09T07:10:41.433Z,31.62
2023-05-09T07:13:08.335Z,31.90
2023-05-09T07:15:41.986Z,31.80
2023-05-09T07:18:09.915Z,31.51
2023-05-09T07:20:37.058Z,31.00
2023-05-09T07:23:04.244Z,30.62
2023-05-09T07:25:31.086Z,29.90
2023-05-09T07:27:57.785Z,32.95
2023-05-09T07:30:24.616Z,33.35
2023-05-09T07:32:51.562Z,33.31
2023-05-09T07:35:19.045Z,32.84
2023-05-09T07:37:45.840Z,31.90
2023-05-09T07:40:12.979Z,31.68
2023-05-09T07:42:40.200Z,29.62
2023-05-09T07:45:07.439Z,29.59
2023-05-09T07:47:34.696Z,29.64
2023-05-09T07:50:01.557Z,29.04
2023-05-09T07:52:28.577Z,28.26
2023-05-09T07:54:55.354Z,28.27
2023-05-09T07:57:22.421Z,26.96
2023-05-09T07:59:49.188Z,27.11
2023-05-09T08:02:16.387Z,26.28
2023-05-09T08:04:43.411Z,27.17
2023-05-09T08:07:11.233Z,27.11
2023-05-09T08:09:37.979Z,26.40
2023-05-09T08:12:05.468Z,26.19
2023-05-09T08:14:32.308Z,26.41
2023-05-09T08:16:59.739Z,26.26
2023-05-09T08:19:26.813Z,26.13
2023-05-09T08:21:53.874Z,26.17
2023-05-09T08:24:20.605Z,25.99
2023-05-09T08:26:47.437Z,25.08
2023-05-09T08:29:14.295Z,24.80
2023-05-09T08:31:41.208Z,24.34
2023-05-09T08:34:08.416Z,24.91
2023-05-09T08:36:38.887Z,25.67
2023-05-09T08:39:05.666Z,26.08
2023-05-09T08:41:35.312Z,26.31
2023-05-09T08:44:02.396Z,26.15
2023-05-09T08:46:32.065Z,25.97
2023-05-09T08:48:58.925Z,25.77
2023-05-09T08:51:25.700Z,25.03
2023-05-09T08:53:52.557Z,24.74
2023-05-09T08:56:19.494Z,25.01
2023-05-09T08:58:46.514Z,24.84
2023-05-09T09:01:13.581Z,25.57
2023-05-09T09:03:46.979Z,25.39
2023-05-09T09:06:13.883Z,24.61
2023-05-09T09:08:42.409Z,24.35
2023-05-09T09:11:12.861Z,24.93
2023-05-09T09:13:40.637Z,24.66
2023-05-09T09:16:14.235Z,24.77
2023-05-09T09:18:40.974Z,24.60
2023-05-09T09:21:09.426Z,23.38
2023-05-09T09:23:37.090Z,23.71
2023-05-09T09:26:04.366Z,25.81
2023-05-09T09:28:32.373Z,26.02
2023-05-09T09:30:59.256Z,24.47
2023-05-09T09:33:26.578Z,25.74
2023-05-09T09:35:54.979Z,25.69
2023-05-09T09:38:22.579Z,25.32
2023-05-09T09:40:55.884Z,25.12
2023-05-09T09:43:41.029Z,24.99
2023-05-09T09:46:09.296Z,25.30
2023-05-09T09:48:37.664Z,25.25
2023-05-09T09:51:09.469Z,24.77
2023-05-09T09:53:42.866Z,24.17
2023-05-09T09:56:09.613Z,23.82
2023-05-09T09:58:36.545Z,23.03
2023-05-09T10:01:20.230Z,23.09
2023-05-09T10:03:47.539Z,22.72
2023-05-09T10:06:15.419Z,21.21
2023-05-09T10:08:46.226Z,21.02
2023-05-09T10:11:13.651Z,21.26
2023-05-09T10:13:40.731Z,21.82
2023-05-09T10:16:08.151Z,22.50
2023-05-09T10:18:35.685Z,22.99
2023-05-09T10:21:04.569Z,22.78
2023-05-09T10:23:33.868Z,23.07
2023-05-09T10:26:03.501Z,23.46
2023-05-09T10:28:32.977Z,22.86
2023-05-09T10:31:01.167Z,24.40
2023-05-09T10:33:33.946Z,24.94
2023-05-09T10:36:00.661Z,23.73
2023-05-09T10:38:27.366Z,23.40
2023-05-09T10:40:54.168Z,23.12
2023-05-09T10:43:23.525Z,23.82
2023-05-09T10:45:51.267Z,24.51
2023-05-09T10:48:18.222Z,24.72
2023-05-09T10:50:45.789Z,24.98
2023-05-09T10:53:18.464Z,25.02
2023-05-09T10:55:50.517Z,24.34
2023-05-09T10:58:19.523Z,24.81
2023-05-09T11:00:47.667Z,24.10
2023-05-09T11:03:14.566Z,23.26
2023-05-09T11:05:41.604Z,24.15
2023-05-09T11:08:18.781Z,24.33
2023-05-09T11:10:45.625Z,24.06
2023-05-09T11:13:12.645Z,24.47
2023-05-09T11:16:12.036Z,24.51
2023-05-09T11:18:52.186Z,24.38
2023-05-09T11:21:19.853Z,24.75
2023-05-09T11:23:47.373Z,24.82
2023-05-09T11:26:15.542Z,25.16
2023-05-09T11:28:42.396Z,25.25
2023-05-09T11:31:14.513Z,25.79
2023-05-09T11:33:42.284Z,25.32
2023-05-09T11:36:29.172Z,25.41
2023-05-09T11:39:06.593Z,24.81
2023-05-09T11:41:43.303Z,24.11
2023-05-09T11:44:17.832Z,23.55
2023-05-09T11:46:45.400Z,22.89
2023-05-09T11:49:12.541Z,22.57
2023-05-09T11:51:39.536Z,22.13
2023-05-09T11:54:07.000Z,22.28
2023-05-09T11:56:34.812Z,22.19
2023-05-09T11:59:02.029Z,21.28
2023-05-09T12:01:29.330Z,23.72
2023-05-09T12:03:57.676Z,24.41
2023-05-09T12:06:29.293Z,24.66
2023-05-09T12:08:58.893Z,23.51
2023-05-09T12:11:25.657Z,23.52
2023-05-09T12:13:52.475Z,23.32
2023-05-09T12:16:19.575Z,23.31
2023-05-09T12:18:47.840Z,22.95
2023-05-09T12:21:15.022Z,22.38
2023-05-09T12:23:41.767Z,22.10
2023-05-09T12:26:09.040Z,21.60
2023-05-09T12:28:35.821Z,21.43
2023-05-09T12:31:03.435Z,21.22
2023-05-09T12:33:30.470Z,21.34
2023-05-09T12:36:06.488Z,21.60
2023-05-09T12:38:34.074Z,21.29
2023-05-09T12:41:18.246Z,21.95
2023-05-09T12:43:55.102Z,24.47
2023-05-09T12:46:22.008Z,25.01
2023-05-09T12:48:48.943Z,24.29
2023-05-09T12:51:20.262Z,24.91
2023-05-09T12:53:47.093Z,24.88
2023-05-09T12:56:18.130Z,25.31
2023-05-09T12:58:49.608Z,25.19
2023-05-09T13:01:17.279Z,24.86
2023-05-09T13:03:44.299Z,22.70
2023-05-09T13:06:12.689Z,22.02
2023-05-09T13:08:40.179Z,22.02
2023-05-09T13:13:41.940Z,22.27
2023-05-09T13:16:10.333Z,22.10
2023-05-09T13:18:38.560Z,22.17
2023-05-09T13:21:05.368Z,22.74
2023-05-09T13:23:32.180Z,22.39
2023-05-09T13:25:59.024Z,22.40
2023-05-09T13:28:25.991Z,22.05
2023-05-09T13:30:52.760Z,21.04
2023-05-09T13:33:25.849Z,21.21
2023-05-09T13:35:53.593Z,21.71
2023-05-09T13:38:20.600Z,21.26
2023-05-09T13:40:47.319Z,21.44
2023-05-09T13:43:14.020Z,21.45
2023-05-09T13:45:40.792Z,21.78
2023-05-09T13:48:07.912Z,22.06
2023-05-09T13:50:34.687Z,21.68
2023-05-09T13:53:01.587Z,21.44
2023-05-09T13:55:30.216Z,21.28
2023-05-09T13:57:57.125Z,21.28
2023-05-09T14:00:26.830Z,21.17
2023-05-09T14:02:53.699Z,21.32
2023-05-09T14:05:20.527Z,21.67
2023-05-09T14:07:47.360Z,23.62
2023-05-09T14:10:14.132Z,23.69
2023-05-09T14:12:43.737Z,24.35
2023-05-09T14:15:10.468Z,23.96
2023-05-09T14:17:37.433Z,24.29
2023-05-09T14:20:05.910Z,24.11
2023-05-09T14:22:32.991Z,23.73
2023-05-09T14:24:59.807Z,23.59
2023-05-09T14:27:26.922Z,23.70
2023-05-09T14:29:53.727Z,24.34
2023-05-09T14:32:20.569Z,25.04
2023-05-09T14:34:49.067Z,25.46
2023-05-09T14:37:16.382Z,25.23
2023-05-09T14:39:44.618Z,25.33
2023-05-09T14:42:13.437Z,25.46
2023-05-09T14:44:40.647Z,25.52
2023-05-09T14:47:08.901Z,25.54
2023-05-09T14:49:36.281Z,25.92
2023-05-09T14:52:03.293Z,26.33
2023-05-09T14:54:31.083Z,26.72
2023-05-09T14:56:58.884Z,27.07
2023-05-09T14:59:25.654Z,26.40
2023-05-09T15:01:53.075Z,26.79
2023-05-09T15:04:19.825Z,26.74
2023-05-09T15:06:46.675Z,27.22
2023-05-09T15:09:14.020Z,27.16
2023-05-09T15:11:48.445Z,26.86
2023-05-09T15:14:16.035Z,27.10
2023-05-09T15:16:42.801Z,26.15
2023-05-09T15:19:09.593Z,25.68
2023-05-09T15:21:36.503Z,24.92
2023-05-09T15:24:04.207Z,24.05
2023-05-09T15:26:31.767Z,24.26
2023-05-09T15:28:58.576Z,24.47
2023-05-09T15:31:25.642Z,24.12
2023-05-09T15:33:52.636Z,23.82
2023-05-09T15:36:19.650Z,24.43
2023-05-09T15:38:49.101Z,25.29
2023-05-09T15:41:16.316Z,26.37
2023-05-09T15:43:43.597Z,26.54
2023-05-09T15:46:10.466Z,27.26
2023-05-09T15:48:37.420Z,27.50
2023-05-09T15:51:04.667Z,27.68
2023-05-09T15:53:32.117Z,28.01
2023-05-09T15:55:58.891Z,28.00
2023-05-09T15:58:25.721Z,27.64
2023-05-09T16:00:52.474Z,26.55
2023-05-09T16:03:19.527Z,25.48
2023-05-09T16:05:46.526Z,25.42
2023-05-09T16:08:13.893Z,25.67
2023-05-09T16:10:40.646Z,25.42
2023-05-09T16:13:08.835Z,25.87
2023-05-09T16:15:35.940Z,26.20
2023-05-09T16:18:03.232Z,25.90
2023-05-09T16:20:30.991Z,25.83
2023-05-09T16:22:58.017Z,25.72
2023-05-09T16:25:24.804Z,25.56
2023-05-09T16:27:53.039Z,25.75
2023-05-09T16:30:19.868Z,29.15
2023-05-09T16:32:46.857Z,29.41
2023-05-09T16:35:13.691Z,29.40
2023-05-09T16:37:40.536Z,30.20
2023-05-09T16:40:08.145Z,31.06
2023-05-09T16:42:35.498Z,31.63
2023-05-09T16:45:02.322Z,32.18
2023-05-09T16:47:29.372Z,32.72
2023-05-09T16:49:56.221Z,31.96
2023-05-09T16:52:23.362Z,30.59
2023-05-09T16:54:50.252Z,30.12
2023-05-09T16:57:17.241Z,29.86
2023-05-09T16:59:44.146Z,29.58
2023-05-09T17:02:10.914Z,29.51
2023-05-09T17:04:37.984Z,29.32
2023-05-09T17:07:05.229Z,29.54
2023-05-09T17:09:32.060Z,29.34
2023-05-09T17:11:59.967Z,29.13
2023-05-09T17:14:26.950Z,28.94
2023-05-09T17:16:54.293Z,28.48
2023-05-09T17:19:22.847Z,28.38
2023-05-09T17:21:49.715Z,27.94
2023-05-09T17:24:16.722Z,27.93
2023-05-09T17:26:43.446Z,27.79
2023-05-09T17:29:10.188Z,27.72
2023-05-09T17:31:37.393Z,27.38
2023-05-09T17:34:04.906Z,27.32
2023-05-09T17:36:32.930Z,27.45
2023-05-09T17:39:00.281Z,27.24
2023-05-09T17:41:27.118Z,26.96
2023-05-09T17:43:56.745Z,26.93
2023-05-09T17:46:23.712Z,26.97
2023-05-09T17:48:50.767Z,27.11
2023-05-09T17:51:17.690Z,27.06
2023-05-09T17:53:44.549Z,26.96
2023-05-09T17:56:11.300Z,27.05
2023-05-09T17:58:38.289Z,26.93
2023-05-09T18:01:05.095Z,26.77
2023-05-09T18:03:32.819Z,26.60
2023-05-09T18:05:59.925Z,26.50
2023-05-09T18:08:27.178Z,26.41
2023-05-09T18:10:54.138Z,26.35
2023-05-09T18:13:21.048Z,26.58
2023-05-09T18:15:47.979Z,32.04
2023-05-09T18:18:17.871Z,32.58
2023-05-09T18:20:46.461Z,31.97
2023-05-09T18:23:14.239Z,32.12
2023-05-09T18:25:41.426Z,31.84
2023-05-09T18:28:08.733Z,31.34
2023-05-09T18:30:36.024Z,31.95
2023-05-09T18:33:03.176Z,31.83
2023-05-09T18:35:31.019Z,31.52
2023-05-09T18:37:57.869Z,31.04
2023-05-09T18:40:24.705Z,30.73
2023-05-09T18:42:51.522Z,33.44
2023-05-09T18:45:18.398Z,36.61
2023-05-09T18:47:45.639Z,36.15
2023-05-09T18:50:13.229Z,34.97
2023-05-09T18:52:40.172Z,34.11
2023-05-09T18:55:07.296Z,34.66
2023-05-09T18:57:34.175Z,36.53
2023-05-09T19:00:01.500Z,36.81
2023-05-09T19:02:29.575Z,36.56
2023-05-09T19:04:56.417Z,36.44
2023-05-09T19:07:23.568Z,36.11
2023-05-09T19:09:50.808Z,35.85
2023-05-09T19:12:17.618Z,36.54
2023-05-09T19:14:44.427Z,36.72
2023-05-09T19:17:11.330Z,36.49
2023-05-09T19:19:38.108Z,36.38
2023-05-09T19:22:05.559Z,36.33
2023-05-09T19:24:32.614Z,36.20
2023-05-09T19:26:59.636Z,36.11
2023-05-09T19:29:26.418Z,36.85
2023-05-09T19:31:53.080Z,38.88
2023-05-09T19:34:19.884Z,38.30
2023-05-09T19:36:46.649Z,38.40
2023-05-09T19:39:13.672Z,38.53
2023-05-09T19:41:40.889Z,39.53
2023-05-09T19:44:07.778Z,39.56
2023-05-09T19:46:37.378Z,40.64
2023-05-09T19:49:04.416Z,41.08
2023-05-09T19:51:31.283Z,40.43
2023-05-09T19:53:58.073Z,40.05
2023-05-09T19:56:25.164Z,40.26
2023-05-09T19:58:52.044Z,40.14
2023-05-09T20:01:19.499Z,39.82
2023-05-09T20:03:46.626Z,39.65
2023-05-09T20:06:13.824Z,39.52
2023-05-09T20:08:40.785Z,39.71
2023-05-09T20:11:07.524Z,40.22
2023-05-09T20:13:35.803Z,40.84
2023-05-09T20:16:03.041Z,40.61
2023-05-09T20:18:32.975Z,41.72
2023-05-09T20:21:00.906Z,41.02
2023-05-09T20:23:28.391Z,41.79
2023-05-09T20:25:55.636Z,40.97
2023-05-09T20:28:22.892Z,40.71
2023-05-09T20:30:49.840Z,40.83
2023-05-09T20:33:17.058Z,41.39
2023-05-09T20:35:43.993Z,41.26
2023-05-09T20:38:11.289Z,41.28
2023-05-09T20:40:38.098Z,41.46
2023-05-09T20:43:04.959Z,41.27
2023-05-09T20:45:31.964Z,40.88
2023-05-09T20:47:58.881Z,40.45
2023-05-09T20:50:25.896Z,40.27
2023-05-09T20:52:52.744Z,39.83
2023-05-09T20:55:21.087Z,39.55
2023-05-09T20:57:48.067Z,39.65
2023-05-09T21:00:15.566Z,40.47
2023-05-09T21:02:42.884Z,42.97
2023-05-09T21:05:09.932Z,42.21
2023-05-09T21:07:36.868Z,41.95
2023-05-09T21:10:03.934Z,42.22
2023-05-09T21:12:32.259Z,42.59
2023-05-09T21:14:59.052Z,42.54
2023-05-09T21:17:25.836Z,43.23
2023-05-09T21:19:52.823Z,44.71
2023-05-09T21:22:19.804Z,44.80
2023-05-09T21:24:46.763Z,44.91
2023-05-09T21:27:14.113Z,44.72
2023-05-09T21:29:40.858Z,45.20
2023-05-09T21:32:07.562Z,45.13
2023-05-09T21:34:34.950Z,45.13
2023-05-09T21:37:01.706Z,44.45
2023-05-09T21:39:28.680Z,44.13
2023-05-09T21:41:55.469Z,44.43
2023-05-09T21:44:22.233Z,44.58
2023-05-09T21:46:49.160Z,44.63
2023-05-09T21:49:16.495Z,45.14
2023-05-09T21:51:43.396Z,45.63
2023-05-09T21:54:10.549Z,45.96
2023-05-09T21:56:37.392Z,46.01
2023-05-09T21:59:04.335Z,46.35
2023-05-09T22:01:31.359Z,46.78
2023-05-09T22:03:58.488Z,47.22
2023-05-09T22:06:25.471Z,47.60
2023-05-09T22:08:52.252Z,47.61
2023-05-09T22:11:19.978Z,47.83
2023-05-09T22:13:46.767Z,48.45
2023-05-09T22:16:13.527Z,48.13
2023-05-09T22:18:40.278Z,49.16
2023-05-09T22:21:07.185Z,49.99
2023-05-09T22:23:34.211Z,50.23
2023-05-09T22:26:01.040Z,50.73
2023-05-09T22:28:28.823Z,50.72
2023-05-09T22:30:55.619Z,51.22
2023-05-09T22:33:22.409Z,51.96
2023-05-09T22:35:49.471Z,60.05
2023-05-09T22:38:16.327Z,62.06
2023-05-09T22:40:43.252Z,61.27
2023-05-09T22:43:10.628Z,60.38
2023-05-09T22:45:37.623Z,60.03
2023-05-09T22:48:05.429Z,58.94
2023-05-09T22:50:32.245Z,58.86
2023-05-09T22:52:58.911Z,60.16
2023-05-09T22:55:25.720Z,59.87
2023-05-09T22:57:52.630Z,59.37
2023-05-09T23:00:19.703Z,58.62
2023-05-09T23:02:46.504Z,59.29
2023-05-09T23:05:13.422Z,57.74
2023-05-09T23:07:40.345Z,59.72
2023-05-09T23:10:07.790Z,58.56
2023-05-09T23:12:34.593Z,57.32
2023-05-09T23:15:01.457Z,55.89
2023-05-09T23:17:28.782Z,54.80
2023-05-09T23:19:55.969Z,55.09
2023-05-09T23:22:23.261Z,55.22
2023-05-09T23:24:50.316Z,56.33
2023-05-09T23:27:17.091Z,58.10
2023-05-09T23:29:43.934Z,65.37
2023-05-09T23:32:10.723Z,64.88
2023-05-09T23:34:38.285Z,63.23
2023-05-09T23:37:05.047Z,62.77
2023-05-09T23:39:32.411Z,62.15
2023-05-09T23:41:59.251Z,61.14
2023-05-09T23:44:26.120Z,61.79
2023-05-09T23:46:53.109Z,61.51
2023-05-09T23:49:20.252Z,61.24
2023-05-09T23:51:47.323Z,61.10
2023-05-09T23:54:15.937Z,60.96
2023-05-09T23:56:43.154Z,60.44
2023-05-09T23:59:09.940Z,60.33
